Terminal Aerodrome Forecast
Issued by NWS

Home | Current Version | Previous Version | Text Only | Print | Product List | Glossary On
Versions: 1 2 3 4 5 6 7 8 9 10 11 12 13 14 15 16
000
FTPQ31 PGUM 250900 AAB
TAFPQ
TAF AMD

PGWT 250930Z 2510/2606 07009KT P6SM VCSH FEW018 SCT040 BKN120
      TEMPO 2510/2512 06012G20KT 5SM SHRA SCT016 BKN025=

USA.gov is the U.S. government's official web portal to all federal, state and local government web resources and services.